createdAt,value
2022-12-18T00:01:27.900Z,93.51
2022-12-18T00:03:56.521Z,93.90
2022-12-18T00:06:24.617Z,93.84
2022-12-18T00:08:52.058Z,94.08
2022-12-18T00:11:26.919Z,94.19
2022-12-18T00:13:56.552Z,94.62
2022-12-18T00:16:25.407Z,95.26
2022-12-18T00:18:55.255Z,95.86
2022-12-18T00:21:22.580Z,95.69
2022-12-18T00:23:50.633Z,95.88
2022-12-18T00:26:39.663Z,96.12
2022-12-18T00:29:12.444Z,96.33
2022-12-18T00:31:39.597Z,96.87
2022-12-18T00:34:07.048Z,96.70
2022-12-18T00:36:35.421Z,96.73
2022-12-18T00:39:05.123Z,97.22
2022-12-18T00:41:52.459Z,97.48
2022-12-18T00:44:19.795Z,97.94
2022-12-18T00:46:48.288Z,98.10
2022-12-18T00:49:17.726Z,98.14
2022-12-18T00:51:44.739Z,98.28
2022-12-18T00:54:12.330Z,98.44
2022-12-18T00:56:48.255Z,98.89
2022-12-18T00:59:16.991Z,99.35
2022-12-18T01:01:43.997Z,99.51
2022-12-18T01:04:11.116Z,99.64
2022-12-18T01:06:37.920Z,100.00
2022-12-18T01:09:04.863Z,100.00
2022-12-18T01:11:32.456Z,100.00
2022-12-18T01:14:00.634Z,100.00
2022-12-18T01:16:27.924Z,100.00
2022-12-18T01:18:55.637Z,100.00
2022-12-18T01:21:24.147Z,100.00
2022-12-18T01:23:56.133Z,100.00
2022-12-18T01:26:23.575Z,99.45
2022-12-18T01:28:50.622Z,98.83
2022-12-18T01:31:20.991Z,98.94
2022-12-18T01:33:48.179Z,99.10
2022-12-18T01:36:29.912Z,99.05
2022-12-18T01:38:57.531Z,99.04
2022-12-18T01:41:27.418Z,99.26
2022-12-18T01:43:58.332Z,99.29
2022-12-18T01:46:26.406Z,99.27
2022-12-18T01:49:02.121Z,98.50
2022-12-18T01:51:31.538Z,98.37
2022-12-18T01:54:00.334Z,99.11
2022-12-18T01:56:27.382Z,99.32
2022-12-18T01:58:54.394Z,99.31
2022-12-18T02:01:24.205Z,99.56
2022-12-18T02:03:51.188Z,99.68
2022-12-18T02:06:30.657Z,99.52
2022-12-18T02:09:19.802Z,99.35
2022-12-18T02:11:55.501Z,99.29
2022-12-18T02:14:34.925Z,99.49
2022-12-18T02:17:13.888Z,99.39
2022-12-18T02:19:43.554Z,99.29
2022-12-18T02:22:38.099Z,99.58
2022-12-18T02:25:44.064Z,99.56
2022-12-18T02:28:16.596Z,100.00
2022-12-18T02:30:47.256Z,100.00
2022-12-18T02:33:15.567Z,100.00
2022-12-18T02:35:45.163Z,100.00
2022-12-18T02:38:13.862Z,100.00
2022-12-18T02:40:43.323Z,100.00
2022-12-18T02:43:12.888Z,100.00
2022-12-18T02:45:56.742Z,100.00
2022-12-18T02:48:34.234Z,100.00
2022-12-18T02:51:13.031Z,100.00
2022-12-18T02:53:49.166Z,100.00
2022-12-18T02:56:18.227Z,100.00
2022-12-18T02:58:59.727Z,100.00
2022-12-18T03:02:02.328Z,100.00
2022-12-18T03:04:35.931Z,100.00
2022-12-18T03:07:10.509Z,100.00
2022-12-18T03:09:43.121Z,100.00
2022-12-18T03:12:26.024Z,100.00
2022-12-18T03:15:18.486Z,100.00
2022-12-18T03:17:56.182Z,100.00
2022-12-18T03:20:25.321Z,100.00
2022-12-18T03:23:01.870Z,100.00
2022-12-18T03:25:30.107Z,100.00
2022-12-18T03:28:00.129Z,100.00
2022-12-18T03:30:29.694Z,100.00
2022-12-18T03:33:13.147Z,100.00
2022-12-18T03:35:42.807Z,100.00
2022-12-18T03:38:11.342Z,100.00
2022-12-18T03:40:51.828Z,100.00
2022-12-18T03:44:11.285Z,100.00
2022-12-18T03:46:53.199Z,100.00
2022-12-18T03:49:39.777Z,100.00
2022-12-18T03:52:21.328Z,100.00
2022-12-18T03:54:48.710Z,100.00
2022-12-18T03:57:21.634Z,100.00
2022-12-18T03:59:53.354Z,100.00
2022-12-18T04:02:23.596Z,100.00
2022-12-18T04:04:54.687Z,100.00
2022-12-18T04:07:23.474Z,100.00
2022-12-18T04:09:53.786Z,100.00
2022-12-18T04:12:20.722Z,100.00
2022-12-18T04:14:47.625Z,100.00
2022-12-18T04:17:14.475Z,100.00
2022-12-18T04:19:41.423Z,100.00
2022-12-18T04:22:11.286Z,100.00
2022-12-18T04:24:38.351Z,100.00
2022-12-18T04:27:05.543Z,100.00
2022-12-18T04:29:33.220Z,100.00
2022-12-18T04:32:00.102Z,100.00
2022-12-18T04:34:27.118Z,100.00
2022-12-18T04:36:53.880Z,100.00
2022-12-18T04:39:21.365Z,100.00
2022-12-18T04:41:48.095Z,100.00
2022-12-18T04:44:15.036Z,100.00
2022-12-18T04:46:42.013Z,100.00
2022-12-18T04:49:08.934Z,100.00
2022-12-18T04:51:35.742Z,100.00
2022-12-18T04:54:03.098Z,100.00
2022-12-18T04:56:32.670Z,100.00
2022-12-18T04:58:59.594Z,100.00
2022-12-18T05:01:32.508Z,100.00
2022-12-18T05:04:01.901Z,100.00
2022-12-18T05:06:28.799Z,100.00
2022-12-18T05:08:55.772Z,100.00
2022-12-18T05:11:22.646Z,100.00
2022-12-18T05:13:49.637Z,100.00
2022-12-18T05:16:16.739Z,100.00
2022-12-18T05:18:44.025Z,100.00
2022-12-18T05:21:10.910Z,100.00
2022-12-18T05:23:38.270Z,100.00
2022-12-18T05:26:07.359Z,100.00
2022-12-18T05:28:36.410Z,100.00
2022-12-18T05:31:05.019Z,100.00
2022-12-18T05:33:34.027Z,100.00
2022-12-18T05:36:02.580Z,100.00
2022-12-18T05:38:30.993Z,100.00
2022-12-18T05:40:58.219Z,100.00
2022-12-18T05:43:26.823Z,100.00
2022-12-18T05:45:54.552Z,100.00
2022-12-18T05:48:22.222Z,100.00
2022-12-18T05:50:51.280Z,100.00
2022-12-18T05:53:20.799Z,100.00
2022-12-18T05:55:48.084Z,100.00
2022-12-18T05:58:15.794Z,100.00
2022-12-18T06:00:45.833Z,100.00
2022-12-18T06:03:13.625Z,100.00
2022-12-18T06:05:42.789Z,100.00
2022-12-18T06:08:10.072Z,100.00
2022-12-18T06:10:37.707Z,100.00
2022-12-18T06:13:05.104Z,100.00
2022-12-18T06:15:31.938Z,100.00
2022-12-18T06:17:59.327Z,100.00
2022-12-18T06:20:31.821Z,100.00
2022-12-18T06:23:00.400Z,100.00
2022-12-18T06:25:27.237Z,100.00
2022-12-18T06:27:54.146Z,100.00
2022-12-18T06:30:21.412Z,100.00
2022-12-18T06:32:54.661Z,100.00
2022-12-18T06:35:23.797Z,100.00
2022-12-18T06:37:50.693Z,100.00
2022-12-18T06:40:17.898Z,100.00
2022-12-18T06:42:44.772Z,100.00
2022-12-18T06:45:12.573Z,100.00
2022-12-18T06:47:39.479Z,100.00
2022-12-18T06:50:06.868Z,100.00
2022-12-18T06:52:34.597Z,100.00
2022-12-18T06:55:01.960Z,100.00
2022-12-18T06:57:29.011Z,100.00
2022-12-18T06:59:55.953Z,100.00
2022-12-18T07:02:23.014Z,100.00
2022-12-18T07:04:50.032Z,100.00
2022-12-18T07:07:16.924Z,100.00
2022-12-18T07:09:43.952Z,100.00
2022-12-18T07:12:10.944Z,100.00
2022-12-18T07:14:37.731Z,100.00
2022-12-18T07:17:04.612Z,100.00
2022-12-18T07:19:32.790Z,100.00
2022-12-18T07:21:59.898Z,100.00
2022-12-18T07:24:26.725Z,100.00
2022-12-18T07:26:53.763Z,100.00
2022-12-18T07:29:20.657Z,100.00
2022-12-18T07:31:47.704Z,99.87
2022-12-18T07:34:16.317Z,99.51
2022-12-18T07:36:43.845Z,98.87
2022-12-18T07:39:12.546Z,97.81
2022-12-18T07:41:45.213Z,97.47
2022-12-18T07:44:13.863Z,97.15
2022-12-18T07:46:40.744Z,97.02
2022-12-18T07:49:07.814Z,97.02
2022-12-18T07:51:34.631Z,96.97
2022-12-18T07:54:03.984Z,96.28
2022-12-18T07:56:31.583Z,95.64
2022-12-18T07:58:59.938Z,95.32
2022-12-18T08:01:28.754Z,93.54
2022-12-18T08:03:56.015Z,91.68
2022-12-18T08:06:24.455Z,90.03
2022-12-18T08:08:53.770Z,88.94
2022-12-18T08:11:20.702Z,87.67
2022-12-18T08:13:48.588Z,89.08
2022-12-18T08:16:16.942Z,87.81
2022-12-18T08:18:43.961Z,85.67
2022-12-18T08:21:20.610Z,86.83
2022-12-18T08:23:49.381Z,83.93
2022-12-18T08:26:18.677Z,82.41
2022-12-18T08:28:46.164Z,84.63
2022-12-18T08:31:17.974Z,82.92
2022-12-18T08:33:44.872Z,81.55
2022-12-18T08:36:12.043Z,78.14
2022-12-18T08:38:39.152Z,80.70
2022-12-18T08:41:08.633Z,78.40
2022-12-18T08:43:54.413Z,80.54
2022-12-18T08:46:23.557Z,80.66
2022-12-18T08:48:52.816Z,78.10
2022-12-18T08:51:20.606Z,76.39
2022-12-18T08:53:47.940Z,78.54
2022-12-18T08:56:15.703Z,74.54
2022-12-18T08:58:43.858Z,74.65
2022-12-18T09:01:12.919Z,73.31
2022-12-18T09:03:40.556Z,73.05
2022-12-18T09:06:08.516Z,72.44
2022-12-18T09:08:35.818Z,70.95
2022-12-18T09:11:02.765Z,70.86
2022-12-18T09:13:29.842Z,72.15
2022-12-18T09:15:56.862Z,70.75
2022-12-18T09:18:25.329Z,70.31
2022-12-18T09:20:53.906Z,72.78
2022-12-18T09:23:21.994Z,73.54
2022-12-18T09:25:49.533Z,73.23
2022-12-18T09:28:19.183Z,73.46
2022-12-18T09:30:50.460Z,74.12
2022-12-18T09:33:17.800Z,74.08
2022-12-18T09:35:46.279Z,73.83
2022-12-18T09:38:16.102Z,74.23
2022-12-18T09:40:45.150Z,74.40
2022-12-18T09:43:18.894Z,72.82
2022-12-18T09:45:50.407Z,73.68
2022-12-18T09:48:24.698Z,70.16
2022-12-18T09:50:53.384Z,71.07
2022-12-18T09:53:27.862Z,70.22
2022-12-18T09:55:57.432Z,69.19
2022-12-18T09:58:46.370Z,69.07
2022-12-18T10:01:17.518Z,64.11
2022-12-18T10:03:44.639Z,64.05
2022-12-18T10:06:32.894Z,63.73
2022-12-18T10:09:38.213Z,63.55
2022-12-18T10:12:17.293Z,62.70
2022-12-18T10:15:12.965Z,62.15
2022-12-18T10:17:53.185Z,60.60
2022-12-18T10:20:42.535Z,58.13
2022-12-18T10:23:29.407Z,60.47
2022-12-18T10:26:06.114Z,57.22
2022-12-18T10:28:35.992Z,55.96
2022-12-18T10:31:03.524Z,55.81
2022-12-18T10:33:33.420Z,56.50
2022-12-18T10:36:01.207Z,59.13
2022-12-18T10:38:33.000Z,59.43
2022-12-18T10:41:02.607Z,60.05
2022-12-18T10:43:35.174Z,63.24
2022-12-18T10:46:15.596Z,64.48
2022-12-18T10:48:51.489Z,64.54
2022-12-18T10:51:23.291Z,65.20
2022-12-18T10:54:00.508Z,65.48
2022-12-18T10:56:29.804Z,65.66
2022-12-18T10:59:07.860Z,65.18
2022-12-18T11:01:48.868Z,65.76
2022-12-18T11:04:24.466Z,64.64
2022-12-18T11:07:00.251Z,63.29
2022-12-18T11:09:33.267Z,61.65
2022-12-18T11:12:07.247Z,60.00
2022-12-18T11:14:47.155Z,58.30
2022-12-18T11:17:25.842Z,56.85
2022-12-18T11:19:55.553Z,53.52
2022-12-18T11:22:27.610Z,53.75
2022-12-18T11:28:04.751Z,49.17
2022-12-18T11:30:36.622Z,51.27
2022-12-18T11:33:21.934Z,50.10
2022-12-18T11:36:04.741Z,48.45
2022-12-18T11:38:41.264Z,48.72
2022-12-18T11:41:50.030Z,46.89
2022-12-18T11:44:32.897Z,48.18
2022-12-18T11:47:13.873Z,49.03
2022-12-18T11:49:42.394Z,47.24
2022-12-18T11:52:20.017Z,45.40
2022-12-18T11:54:46.837Z,46.02
2022-12-18T11:57:28.573Z,46.53
2022-12-18T12:00:13.540Z,44.93
2022-12-18T12:03:16.020Z,45.55
2022-12-18T12:06:07.797Z,42.95
2022-12-18T12:09:05.154Z,41.35
2022-12-18T12:11:38.064Z,42.53
2022-12-18T12:14:07.861Z,43.32
2022-12-18T12:16:50.151Z,41.60
2022-12-18T12:19:27.048Z,41.47
2022-12-18T12:22:05.014Z,41.19
2022-12-18T12:24:34.714Z,41.55
2022-12-18T12:27:40.807Z,41.95
2022-12-18T12:30:23.763Z,40.84
2022-12-18T12:33:02.707Z,40.94
2022-12-18T12:35:44.517Z,40.42
2022-12-18T12:38:21.111Z,42.84
2022-12-18T12:41:04.547Z,39.75
2022-12-18T12:43:49.591Z,40.97
2022-12-18T12:46:20.854Z,41.37
2022-12-18T12:48:53.718Z,42.71
2022-12-18T12:51:24.917Z,41.78
2022-12-18T12:53:54.480Z,43.74
2022-12-18T12:56:28.904Z,43.01
2022-12-18T12:59:03.254Z,43.20
2022-12-18T13:01:38.172Z,42.66
2022-12-18T13:04:22.815Z,43.28
2022-12-18T13:07:05.892Z,42.95
2022-12-18T13:09:36.891Z,42.81
2022-12-18T13:12:41.818Z,42.91
2022-12-18T13:15:25.200Z,43.72
2022-12-18T13:18:15.736Z,42.07
2022-12-18T13:20:52.259Z,42.85
2022-12-18T13:23:29.379Z,42.26
2022-12-18T13:26:24.763Z,42.28
2022-12-18T13:28:56.532Z,41.66
2022-12-18T13:31:44.780Z,43.55
2022-12-18T13:34:26.768Z,43.06
2022-12-18T13:36:56.219Z,42.48
2022-12-18T13:39:32.686Z,44.06
2022-12-18T13:42:07.002Z,43.30
2022-12-18T13:44:40.572Z,43.99
2022-12-18T13:47:32.407Z,43.70
2022-12-18T13:50:00.107Z,43.66
2022-12-18T13:52:34.549Z,43.63
2022-12-18T13:55:06.288Z,44.17
2022-12-18T13:57:41.804Z,44.55
2022-12-18T14:00:17.830Z,45.22
2022-12-18T14:02:46.599Z,45.13
2022-12-18T14:05:29.176Z,45.40
2022-12-18T14:08:02.607Z,45.00
2022-12-18T14:10:48.931Z,45.30
2022-12-18T14:13:25.222Z,45.00
2022-12-18T14:15:52.509Z,45.84
2022-12-18T14:18:59.826Z,47.35
2022-12-18T14:21:31.726Z,48.79
2022-12-18T14:24:20.482Z,50.60
2022-12-18T14:26:51.822Z,52.38
2022-12-18T14:29:21.807Z,53.44
2022-12-18T14:32:18.764Z,55.03
2022-12-18T14:34:47.999Z,56.41
2022-12-18T14:37:18.055Z,58.33
2022-12-18T14:40:10.560Z,59.37
2022-12-18T14:42:38.494Z,61.65
2022-12-18T14:45:41.432Z,62.64
2022-12-18T14:48:22.919Z,64.01
2022-12-18T14:51:04.655Z,64.68
2022-12-18T14:53:36.686Z,65.51
2022-12-18T14:56:13.516Z,65.35
2022-12-18T14:58:40.580Z,66.09
2022-12-18T15:01:10.625Z,67.94
2022-12-18T15:03:45.184Z,68.29
2022-12-18T15:06:26.703Z,68.40
2022-12-18T15:08:56.382Z,68.55
2022-12-18T15:11:36.270Z,69.59
2022-12-18T15:14:25.654Z,70.17
2022-12-18T15:16:56.887Z,70.74
2022-12-18T15:19:40.299Z,71.13
2022-12-18T15:22:22.157Z,71.35
2022-12-18T15:24:50.458Z,73.90
2022-12-18T15:27:27.496Z,73.98
2022-12-18T15:30:22.979Z,73.90
2022-12-18T15:32:51.539Z,74.62
2022-12-18T15:35:27.472Z,74.39
2022-12-18T15:37:55.144Z,75.18
2022-12-18T15:40:27.115Z,75.95
2022-12-18T15:43:15.196Z,77.40
2022-12-18T15:45:42.786Z,77.40
2022-12-18T15:48:30.777Z,77.69
2022-12-18T15:51:00.037Z,78.52
2022-12-18T15:53:35.274Z,78.65
2022-12-18T15:56:21.270Z,78.29
2022-12-18T15:58:50.773Z,78.14
2022-12-18T16:01:18.963Z,78.44
2022-12-18T16:03:46.809Z,78.27
2022-12-18T16:06:14.351Z,79.18
2022-12-18T16:08:41.877Z,79.74
2022-12-18T16:11:39.867Z,79.99
2022-12-18T16:14:20.490Z,80.39
2022-12-18T16:16:50.849Z,81.04
2022-12-18T16:19:21.077Z,81.63
2022-12-18T16:21:50.814Z,81.65
2022-12-18T16:24:23.738Z,81.55
2022-12-18T16:26:52.824Z,81.99
2022-12-18T16:29:28.616Z,81.92
2022-12-18T16:32:00.442Z,81.66
2022-12-18T16:34:35.637Z,81.81
2022-12-18T16:37:06.496Z,81.88
2022-12-18T16:39:35.933Z,82.30
2022-12-18T16:42:16.068Z,81.88
2022-12-18T16:44:45.636Z,83.11
2022-12-18T16:47:15.374Z,84.14
2022-12-18T16:49:46.047Z,84.57
2022-12-18T16:52:14.613Z,84.24
2022-12-18T16:54:42.577Z,84.18
2022-12-18T16:57:18.609Z,84.83
2022-12-18T16:59:47.147Z,85.28
2022-12-18T17:02:19.203Z,85.63
2022-12-18T17:04:56.008Z,84.90
2022-12-18T17:07:24.060Z,85.70
2022-12-18T17:09:52.127Z,85.84
2022-12-18T17:12:20.116Z,85.67
2022-12-18T17:14:49.453Z,86.01
2022-12-18T17:17:22.338Z,85.91
2022-12-18T17:19:52.616Z,86.08
2022-12-18T17:22:21.754Z,85.89
2022-12-18T17:24:49.455Z,86.34
2022-12-18T17:27:17.329Z,86.81
2022-12-18T17:29:47.677Z,87.20
2022-12-18T17:32:17.768Z,87.46
2022-12-18T17:34:47.121Z,87.74
2022-12-18T17:37:16.176Z,87.71
2022-12-18T17:39:46.245Z,88.09
2022-12-18T17:42:15.863Z,88.23
2022-12-18T17:44:45.457Z,88.15
2022-12-18T17:47:14.786Z,88.81
2022-12-18T17:49:42.634Z,89.39
2022-12-18T17:52:11.090Z,89.34
2022-12-18T17:54:41.918Z,89.06
2022-12-18T17:57:09.381Z,89.45
2022-12-18T17:59:36.965Z,89.52
2022-12-18T18:02:04.760Z,89.32
2022-12-18T18:04:32.761Z,89.43
2022-12-18T18:07:00.377Z,89.80
2022-12-18T18:09:28.748Z,89.52
2022-12-18T18:12:16.033Z,89.78
2022-12-18T18:14:44.639Z,89.92
2022-12-18T18:17:12.026Z,89.76
2022-12-18T18:19:39.668Z,89.74
2022-12-18T18:22:08.554Z,90.49
2022-12-18T18:24:36.342Z,90.27
2022-12-18T18:27:08.320Z,90.39
2022-12-18T18:29:37.019Z,90.19
2022-12-18T18:32:05.341Z,90.16
2022-12-18T18:34:34.121Z,90.47
2022-12-18T18:37:02.722Z,90.53
2022-12-18T18:39:31.091Z,90.52
2022-12-18T18:41:58.662Z,90.33
2022-12-18T18:44:26.599Z,90.43
2022-12-18T18:46:55.607Z,90.47
2022-12-18T18:49:24.464Z,90.54
2022-12-18T18:51:54.200Z,90.90
2022-12-18T18:54:22.426Z,91.09
2022-12-18T18:59:38.537Z,91.48
2022-12-18T19:02:06.177Z,91.41
2022-12-18T19:04:35.229Z,91.55
2022-12-18T19:07:04.927Z,91.80
2022-12-18T19:09:32.616Z,91.76
2022-12-18T19:12:19.378Z,91.82
2022-12-18T19:14:47.433Z,92.06
2022-12-18T19:17:15.097Z,92.05
2022-12-18T19:19:43.035Z,91.94
2022-12-18T19:22:13.005Z,91.79
2022-12-18T19:24:40.649Z,91.75
2022-12-18T19:27:07.778Z,92.12
2022-12-18T19:29:35.429Z,91.77
2022-12-18T19:32:05.854Z,92.04
2022-12-18T19:34:35.111Z,92.50
2022-12-18T19:37:02.286Z,92.53
2022-12-18T19:39:35.550Z,92.49
2022-12-18T19:42:03.417Z,92.32
2022-12-18T19:44:32.877Z,92.31
2022-12-18T19:47:00.433Z,92.59
2022-12-18T19:49:30.112Z,92.43
2022-12-18T19:51:57.863Z,92.33
2022-12-18T19:54:26.324Z,92.47
2022-12-18T19:56:54.152Z,92.74
2022-12-18T19:59:22.721Z,93.17
2022-12-18T20:01:51.227Z,94.04
2022-12-18T20:04:21.705Z,94.50
2022-12-18T20:06:52.104Z,94.44
2022-12-18T20:09:20.691Z,94.09
2022-12-18T20:11:50.470Z,94.11
2022-12-18T20:14:22.821Z,93.91
2022-12-18T20:16:51.684Z,93.85
2022-12-18T20:19:19.769Z,94.07
2022-12-18T20:21:48.221Z,94.18
2022-12-18T20:24:16.780Z,94.45
2022-12-18T20:26:44.554Z,94.51
2022-12-18T20:29:12.108Z,94.28
2022-12-18T20:31:39.733Z,93.98
2022-12-18T20:34:07.240Z,94.10
2022-12-18T20:36:44.173Z,94.18
2022-12-18T20:39:12.269Z,94.34
2022-12-18T20:41:40.871Z,94.53
2022-12-18T20:44:21.835Z,95.19
2022-12-18T20:46:54.037Z,95.79
2022-12-18T20:49:25.649Z,96.29
2022-12-18T20:51:54.729Z,96.51
2022-12-18T20:54:24.440Z,96.58
2022-12-18T20:56:52.111Z,95.62
2022-12-18T20:59:19.989Z,95.19
2022-12-18T21:01:48.863Z,95.29
2022-12-18T21:04:18.328Z,95.55
2022-12-18T21:06:51.425Z,95.74
2022-12-18T21:09:20.789Z,96.21
2022-12-18T21:12:06.917Z,95.86
2022-12-18T21:14:33.925Z,96.08
2022-12-18T21:17:02.149Z,96.35
2022-12-18T21:19:29.970Z,96.49
2022-12-18T21:21:58.246Z,96.98
2022-12-18T21:24:25.817Z,97.11
2022-12-18T21:26:56.981Z,97.61
2022-12-18T21:29:26.051Z,98.06
2022-12-18T21:31:54.601Z,98.22
2022-12-18T21:34:27.438Z,98.70
2022-12-18T21:36:55.881Z,99.41
2022-12-18T21:39:23.555Z,99.71
2022-12-18T21:42:09.558Z,99.80
2022-12-18T21:44:42.381Z,99.37
2022-12-18T21:47:21.471Z,99.37
2022-12-18T21:49:51.680Z,99.39
2022-12-18T21:52:19.121Z,99.21
2022-12-18T21:54:45.918Z,99.37
2022-12-18T21:57:15.521Z,99.68
2022-12-18T21:59:45.860Z,99.09
2022-12-18T22:02:16.213Z,99.11
2022-12-18T22:04:43.969Z,98.39
2022-12-18T22:07:11.693Z,98.95
2022-12-18T22:09:39.070Z,98.68
2022-12-18T22:12:06.295Z,98.81
2022-12-18T22:14:33.115Z,98.78
2022-12-18T22:17:00.020Z,99.02
2022-12-18T22:19:28.161Z,99.09
2022-12-18T22:21:55.058Z,99.05
2022-12-18T22:24:24.509Z,99.04
2022-12-18T22:26:56.201Z,99.29
2022-12-18T22:29:47.460Z,99.96
2022-12-18T22:32:30.807Z,100.00
2022-12-18T22:35:07.921Z,100.00
2022-12-18T22:37:35.134Z,100.00
2022-12-18T22:40:03.709Z,99.79
2022-12-18T22:42:31.358Z,99.57
2022-12-18T22:44:58.337Z,99.46
2022-12-18T22:47:29.430Z,99.53
2022-12-18T22:49:57.228Z,99.34
2022-12-18T22:52:25.038Z,99.25
2022-12-18T22:54:53.386Z,99.13
2022-12-18T22:57:22.041Z,98.78
2022-12-18T22:59:50.325Z,99.18
2022-12-18T23:02:18.153Z,99.16
2022-12-18T23:04:45.442Z,99.09
2022-12-18T23:07:12.587Z,99.58
2022-12-18T23:09:40.097Z,99.79
2022-12-18T23:12:08.302Z,99.63
2022-12-18T23:14:35.432Z,99.79
2022-12-18T23:17:02.378Z,99.96
2022-12-18T23:19:29.298Z,100.00
2022-12-18T23:21:58.730Z,100.00
2022-12-18T23:24:26.307Z,100.00
2022-12-18T23:26:53.210Z,99.95
2022-12-18T23:29:20.586Z,99.93
2022-12-18T23:31:49.979Z,100.00
2022-12-18T23:34:18.029Z,100.00
2022-12-18T23:36:46.696Z,100.00
2022-12-18T23:39:28.378Z,100.00
2022-12-18T23:41:59.873Z,100.00
2022-12-18T23:44:26.732Z,100.00
2022-12-18T23:46:53.655Z,100.00
2022-12-18T23:49:23.751Z,100.00
2022-12-18T23:51:50.545Z,100.00
2022-12-18T23:54:17.468Z,100.00
2022-12-18T23:56:59.617Z,100.00
2022-12-18T23:59:26.758Z,100.00
